Time;durP1;ratioP1;P1;durP2;ratioP2;P2;SDS_P1;SDS_P2;PMS_P1;PMS_P2;Temp;Humidity;BMP_temperature;BMP_pressure;BME280_temperature;BME280_humidity;BME280_pressure;Samples;Min_cycle;Max_cycle;Signal;HPM_P1;HPM_P2
2022/01/24 00:02:08;;;;;;;66.85;27.20;;;;;;;;;;5029433;28;100170;-74
2022/01/24 00:04:37;;;;;;;80.70;31.77;;;;;;;;;;5012005;28;100271;-74
2022/01/24 00:07:05;;;;;;;61.60;27.13;;;;;;;;;;5016628;28;100725;-75
2022/01/24 00:09:33;;;;;;;62.42;27.00;;;;;;;;;;5000857;28;99991;-74
2022/01/24 00:12:12;;;;;;;79.20;31.10;;;;;;;;;;5017391;28;100116;-74
2022/01/24 00:28:14;;;;;;;86.95;35.03;;;;;;;;;;4981039;28;100559;-74
2022/01/24 00:30:41;;;;;;;81.32;33.08;;;;;;;;;;4996635;28;100032;-74
2022/01/24 00:33:08;;;;;;;93.63;33.85;;;;;;;;;;5014290;28;100322;-74
2022/01/24 00:35:36;;;;;;;60.20;26.70;;;;;;;;;;5016033;28;100687;-74
2022/01/24 00:38:03;;;;;;;77.43;31.15;;;;;;;;;;5016065;28;100607;-75
2022/01/24 00:40:37;;;;;;;73.20;28.63;;;;;;;;;;5034646;28;100006;-75
2022/01/24 00:43:25;;;;;;;85.45;37.28;;;;;;;;;;5018031;28;99972;-75
2022/01/24 00:45:59;;;;;;;88.15;35.53;;;;;;;;;;5018659;28;100259;-75
2022/01/24 00:54:42;;;;;;;98.05;38.58;;;;;;;;;;5033697;28;100081;-75
2022/01/24 00:56:50;;;;;;;113.85;44.55;;;;;;;;;;5019317;28;100313;-75
2022/01/24 00:59:17;;;;;;;101.05;42.40;;;;;;;;;;4998231;28;100571;-75
2022/01/24 01:01:44;;;;;;;119.55;47.08;;;;;;;;;;5015117;28;100102;-76
2022/01/24 01:04:15;;;;;;;99.18;41.28;;;;;;;;;;5016853;28;100744;-75
2022/01/24 01:06:46;;;;;;;104.65;41.88;;;;;;;;;;4975470;28;103069;-76
2022/01/24 01:20:34;;;;;;;101.88;39.85;;;;;;;;;;5033032;28;101499;-75
2022/01/24 01:23:01;;;;;;;123.70;44.70;;;;;;;;;;5016983;28;100102;-75
2022/01/24 01:25:28;;;;;;;108.57;43.00;;;;;;;;;;4995841;28;99944;-76
2022/01/24 01:27:57;;;;;;;110.60;43.00;;;;;;;;;;4995611;28;100206;-75
2022/01/24 01:30:35;;;;;;;98.07;39.13;;;;;;;;;;4978304;28;100714;-76
2022/01/24 01:33:10;;;;;;;122.40;46.97;;;;;;;;;;5032060;28;100085;-75
2022/01/24 01:55:40;;;;;;;91.28;33.25;;;;;;;;;;5032945;28;100110;-74
2022/01/24 01:58:24;;;;;;;103.43;40.05;;;;;;;;;;5015005;28;100151;-74
2022/01/24 02:00:56;;;;;;;93.53;36.75;;;;;;;;;;4995336;28;100423;-74
2022/01/24 02:03:23;;;;;;;109.00;40.30;;;;;;;;;;4979851;28;101573;-74
2022/01/24 02:05:50;;;;;;;107.38;40.17;;;;;;;;;;4978951;28;100133;-76
2022/01/24 02:08:18;;;;;;;103.47;39.38;;;;;;;;;;4978546;28;100253;-75
2022/01/24 02:10:45;;;;;;;93.75;35.42;;;;;;;;;;5031016;28;100164;-75
2022/01/24 02:13:12;;;;;;;90.68;35.70;;;;;;;;;;5014663;28;101163;-76
2022/01/24 02:21:41;;;;;;;;;;;;;;;;;;4959845;28;100370;-75
2022/01/24 02:24:09;;;;;;;101.03;35.50;;;;;;;;;;4932347;28;100604;-75
2022/01/24 02:26:36;;;;;;;96.78;36.22;;;;;;;;;;4988159;28;100259;-75
2022/01/24 02:29:23;;;;;;;93.03;34.95;;;;;;;;;;4978150;28;100164;-74
2022/01/24 02:31:52;;;;;;;90.18;33.60;;;;;;;;;;4997852;28;100283;-75
2022/01/24 02:34:35;;;;;;;88.40;32.63;;;;;;;;;;4978344;28;100555;-74
2022/01/24 02:37:04;;;;;;;93.40;34.00;;;;;;;;;;4974291;28;100065;-76
2022/01/24 02:39:46;;;;;;;94.05;35.35;;;;;;;;;;5012121;28;100117;-75
2022/01/24 02:53:36;;;;;;;66.25;24.05;;;;;;;;;;4984018;28;103324;-75
2022/01/24 02:56:04;;;;;;;64.57;26.23;;;;;;;;;;4997909;28;100590;-75
2022/01/24 02:58:31;;;;;;;72.10;26.88;;;;;;;;;;4998069;28;100158;-74
2022/01/24 03:00:57;;;;;;;72.07;27.65;;;;;;;;;;4981570;28;100288;-74
2022/01/24 03:03:25;;;;;;;67.85;26.08;;;;;;;;;;4998012;28;100403;-74
2022/01/24 03:05:53;;;;;;;65.47;25.55;;;;;;;;;;4981455;28;100902;-75
2022/01/24 03:08:22;;;;;;;74.20;28.95;;;;;;;;;;4992436;28;101256;-74
2022/01/24 03:10:49;;;;;;;70.93;24.42;;;;;;;;;;5018434;28;100072;-75
2022/01/24 03:15:56;;;;;;;66.93;22.95;;;;;;;;;;5018997;28;100583;-75
2022/01/24 03:18:23;;;;;;;56.70;19.67;;;;;;;;;;5035673;28;99971;-75
2022/01/24 03:20:51;;;;;;;51.45;18.95;;;;;;;;;;5018210;28;100144;-74
2022/01/24 03:23:19;;;;;;;46.80;18.05;;;;;;;;;;5017526;28;102112;-74
2022/01/24 03:25:46;;;;;;;43.97;18.08;;;;;;;;;;5017345;28;100706;-75
2022/01/24 03:28:13;;;;;;;47.05;16.15;;;;;;;;;;5017921;28;100160;-75
2022/01/24 03:30:40;;;;;;;58.67;20.27;;;;;;;;;;5018018;28;100097;-76
2022/01/24 03:33:07;;;;;;;48.75;18.48;;;;;;;;;;5001151;28;100118;-76
2022/01/24 03:35:34;;;;;;;54.05;21.83;;;;;;;;;;5017510;28;101375;-76
2022/01/24 03:38:01;;;;;;;61.25;22.30;;;;;;;;;;5036066;28;99844;-75
2022/01/24 03:40:28;;;;;;;55.15;21.95;;;;;;;;;;5018126;28;99986;-75
2022/01/24 03:42:55;;;;;;;51.78;20.38;;;;;;;;;;5000627;28;103766;-75
2022/01/24 03:45:38;;;;;;;46.47;18.02;;;;;;;;;;5017702;28;101171;-75
2022/01/24 03:48:11;;;;;;;50.67;19.13;;;;;;;;;;5035606;28;100802;-76
2022/01/24 03:50:38;;;;;;;46.67;17.00;;;;;;;;;;5018873;28;100106;-76
2022/01/24 03:53:05;;;;;;;47.63;18.80;;;;;;;;;;5034833;28;102228;-75
2022/01/24 03:55:33;;;;;;;42.75;17.80;;;;;;;;;;5034822;28;101157;-75
2022/01/24 03:58:00;;;;;;;56.38;19.48;;;;;;;;;;5035261;28;100151;-75
2022/01/24 04:00:27;;;;;;;41.78;16.90;;;;;;;;;;5017640;28;99916;-75
2022/01/24 04:02:54;;;;;;;46.38;17.65;;;;;;;;;;5017394;28;100353;-76
2022/01/24 04:05:21;;;;;;;48.80;19.02;;;;;;;;;;5016697;28;101910;-75
2022/01/24 04:07:48;;;;;;;53.78;18.98;;;;;;;;;;5017630;28;100154;-76
2022/01/24 04:10:18;;;;;;;38.75;14.73;;;;;;;;;;5017664;28;100143;-76
2022/01/24 04:12:45;;;;;;;34.88;14.45;;;;;;;;;;5001053;28;100291;-76
2022/01/24 04:15:41;;;;;;;39.90;14.75;;;;;;;;;;5034917;28;100619;-76
2022/01/24 04:18:24;;;;;;;39.20;16.33;;;;;;;;;;4976871;28;102768;-76
2022/01/24 04:23:40;;;;;;;39.85;15.02;;;;;;;;;;4985627;28;100480;-76
2022/01/24 04:26:07;;;;;;;43.58;16.58;;;;;;;;;;4980874;28;100641;-76
2022/01/24 04:28:33;;;;;;;52.90;18.65;;;;;;;;;;4951198;28;100167;-76
2022/01/24 04:31:00;;;;;;;47.20;19.13;;;;;;;;;;5014826;28;100138;-76
2022/01/24 04:33:27;;;;;;;57.75;20.20;;;;;;;;;;5014601;28;100322;-76
2022/01/24 04:35:57;;;;;;;49.22;19.30;;;;;;;;;;5014405;28;101212;-75
2022/01/24 04:38:23;;;;;;;56.28;20.70;;;;;;;;;;4997274;28;100183;-75
2022/01/24 04:40:55;;;;;;;62.10;20.15;;;;;;;;;;4995634;28;100029;-75
2022/01/24 04:46:30;;;;;;;64.75;21.52;;;;;;;;;;5014256;28;100639;-76
2022/01/24 04:56:58;;;;;;;112.28;28.63;;;;;;;;;;5004934;28;101199;-76
2022/01/24 04:59:25;;;;;;;93.05;29.92;;;;;;;;;;5016239;28;100357;-76
2022/01/24 05:01:51;;;;;;;94.65;32.00;;;;;;;;;;5016828;28;100002;-76
2022/01/24 05:04:19;;;;;;;100.70;29.85;;;;;;;;;;5015545;28;100291;-76
2022/01/24 05:06:45;;;;;;;86.70;28.95;;;;;;;;;;5033760;28;100726;-76
2022/01/24 05:09:12;;;;;;;98.85;29.17;;;;;;;;;;5000318;28;99822;-75
2022/01/24 05:11:48;;;;;;;80.50;28.92;;;;;;;;;;5000302;28;99813;-76
2022/01/24 05:25:18;;;;;;;49.75;18.33;;;;;;;;;;5034053;28;100494;-76
2022/01/24 05:27:45;;;;;;;48.35;18.58;;;;;;;;;;5033886;28;100620;-77
2022/01/24 05:30:12;;;;;;;41.05;16.13;;;;;;;;;;4999785;28;99895;-77
2022/01/24 05:32:39;;;;;;;44.92;15.13;;;;;;;;;;5034440;28;100038;-76
2022/01/24 05:35:06;;;;;;;41.05;16.98;;;;;;;;;;5015716;28;100814;-76
2022/01/24 05:37:33;;;;;;;45.53;16.75;;;;;;;;;;5015353;28;100757;-75
2022/01/24 05:40:01;;;;;;;39.58;14.10;;;;;;;;;;5034075;28;100023;-75
2022/01/24 05:42:27;;;;;;;53.88;18.02;;;;;;;;;;5016228;28;100087;-75
2022/01/24 05:44:54;;;;;;;43.50;16.10;;;;;;;;;;5015470;28;100225;-76
2022/01/24 05:47:22;;;;;;;44.65;16.67;;;;;;;;;;5033564;28;100629;-75
2022/01/24 05:49:48;;;;;;;47.65;17.00;;;;;;;;;;5034068;28;100116;-76
2022/01/24 05:52:15;;;;;;;40.70;17.27;;;;;;;;;;5032958;28;100218;-76
2022/01/24 05:54:42;;;;;;;41.55;16.95;;;;;;;;;;4998772;28;100859;-74
2022/01/24 05:57:09;;;;;;;47.13;19.85;;;;;;;;;;5033365;28;100515;-76
2022/01/24 05:59:36;;;;;;;46.25;18.35;;;;;;;;;;5010868;28;100404;-75
2022/01/24 06:02:04;;;;;;;43.92;16.20;;;;;;;;;;4989952;28;100395;-76
2022/01/24 06:04:31;;;;;;;40.97;15.10;;;;;;;;;;4991692;28;100748;-76
2022/01/24 06:06:58;;;;;;;52.42;18.55;;;;;;;;;;4990263;28;100573;-76
2022/01/24 06:09:25;;;;;;;39.20;15.30;;;;;;;;;;4992425;28;100118;-76
2022/01/24 06:11:52;;;;;;;41.75;15.35;;;;;;;;;;4992410;28;100142;-75
2022/01/24 06:14:19;;;;;;;37.50;13.65;;;;;;;;;;4991344;28;102047;-76
2022/01/24 06:16:46;;;;;;;35.92;13.50;;;;;;;;;;4996083;28;102102;-75
2022/01/24 06:19:13;;;;;;;55.15;18.48;;;;;;;;;;4996938;28;100127;-77
2022/01/24 06:21:40;;;;;;;67.32;20.08;;;;;;;;;;4996732;28;99936;-76
2022/01/24 06:24:08;;;;;;;61.17;21.05;;;;;;;;;;4996491;28;100177;-76
2022/01/24 06:26:35;;;;;;;71.75;21.50;;;;;;;;;;4996389;28;100553;-75
2022/01/24 06:29:03;;;;;;;80.72;25.02;;;;;;;;;;4996626;28;100116;-75
2022/01/24 06:31:32;;;;;;;71.97;21.77;;;;;;;;;;4995792;28;100010;-75
2022/01/24 06:33:59;;;;;;;53.13;17.92;;;;;;;;;;5011067;28;101327;-77
2022/01/24 06:36:29;;;;;;;54.88;18.60;;;;;;;;;;4997741;28;101164;-75
2022/01/24 06:38:56;;;;;;;51.50;17.27;;;;;;;;;;4982513;28;100002;-76
2022/01/24 06:41:31;;;;;;;51.67;20.38;;;;;;;;;;5015640;28;100127;-77
2022/01/24 06:43:58;;;;;;;52.85;19.23;;;;;;;;;;5014430;28;101373;-77
2022/01/24 06:46:25;;;;;;;55.90;19.38;;;;;;;;;;5014851;28;101149;-74
2022/01/24 06:48:53;;;;;;;61.47;21.55;;;;;;;;;;5014842;28;100228;-75
2022/01/24 06:51:21;;;;;;;68.13;23.23;;;;;;;;;;5015300;28;100073;-75
2022/01/24 06:53:49;;;;;;;53.70;20.73;;;;;;;;;;5016035;28;100800;-75
2022/01/24 06:56:19;;;;;;;52.83;20.60;;;;;;;;;;5014566;28;100075;-75
2022/01/24 06:58:46;;;;;;;45.35;19.58;;;;;;;;;;5022237;27;100251;-76
2022/01/24 07:01:14;;;;;;;52.28;18.80;;;;;;;;;;5004014;28;100121;-76
2022/01/24 07:03:41;;;;;;;51.72;20.30;;;;;;;;;;4998030;28;100259;-76
2022/01/24 07:06:08;;;;;;;59.22;23.60;;;;;;;;;;5015307;28;100596;-76
2022/01/24 07:08:35;;;;;;;65.63;23.92;;;;;;;;;;4998698;28;100001;-76
2022/01/24 07:11:02;;;;;;;74.78;25.30;;;;;;;;;;4998487;28;99993;-77
2022/01/24 07:13:28;;;;;;;69.95;24.83;;;;;;;;;;4997761;28;100300;-76
2022/01/24 07:16:06;;;;;;;72.72;25.98;;;;;;;;;;4997804;28;100651;-76
2022/01/24 07:21:02;;;;;;;70.15;24.25;;;;;;;;;;5015577;28;100112;-76
2022/01/24 07:23:29;;;;;;;74.97;25.98;;;;;;;;;;4981611;28;100368;-75
2022/01/24 07:26:00;;;;;;;68.22;25.65;;;;;;;;;;5015403;28;100632;-75
2022/01/24 07:28:27;;;;;;;57.95;21.33;;;;;;;;;;5015112;28;100040;-73
2022/01/24 07:30:53;;;;;;;58.88;21.92;;;;;;;;;;5016188;28;100029;-74
2022/01/24 07:33:20;;;;;;;64.68;23.80;;;;;;;;;;4982596;28;101570;-75
2022/01/24 07:35:47;;;;;;;73.82;28.63;;;;;;;;;;5007767;28;101992;-75
2022/01/24 07:38:16;;;;;;;68.63;25.15;;;;;;;;;;5017852;28;100046;-75
2022/01/24 07:40:47;;;;;;;72.00;27.15;;;;;;;;;;5017825;28;100127;-76
2022/01/24 07:43:14;;;;;;;64.55;26.23;;;;;;;;;;5033956;28;100253;-76
2022/01/24 07:45:43;;;;;;;77.75;29.70;;;;;;;;;;5033926;28;100624;-76
2022/01/24 07:48:10;;;;;;;73.57;28.17;;;;;;;;;;5001038;28;100211;-78
2022/01/24 07:50:40;;;;;;;64.25;26.55;;;;;;;;;;4984914;28;100148;-76
2022/01/24 07:53:12;;;;;;;71.63;25.35;;;;;;;;;;5034074;28;100335;-77
2022/01/24 07:55:58;;;;;;;71.57;26.83;;;;;;;;;;5022134;28;100594;-77
2022/01/24 07:58:24;;;;;;;67.72;25.40;;;;;;;;;;4993209;28;100278;-76
2022/01/24 08:00:51;;;;;;;64.25;24.52;;;;;;;;;;4993174;28;101053;-76
2022/01/24 08:03:18;;;;;;;65.43;23.73;;;;;;;;;;5002589;28;101426;-76
2022/01/24 08:05:45;;;;;;;65.90;24.30;;;;;;;;;;5014521;28;100615;-76
2022/01/24 08:08:12;;;;;;;58.45;22.33;;;;;;;;;;5014494;28;100124;-76
2022/01/24 08:10:39;;;;;;;59.30;23.55;;;;;;;;;;5014477;28;100112;-76
2022/01/24 08:13:05;;;;;;;60.38;23.88;;;;;;;;;;4996666;28;100903;-76
2022/01/24 08:15:39;;;;;;;66.55;25.80;;;;;;;;;;5012648;28;100607;-76
2022/01/24 08:18:09;;;;;;;73.60;26.67;;;;;;;;;;5014417;28;100804;-76
2022/01/24 08:20:36;;;;;;;74.57;28.80;;;;;;;;;;5006533;28;100161;-76
2022/01/24 08:23:16;;;;;;;90.78;29.38;;;;;;;;;;5005611;28;100297;-75
2022/01/24 08:25:43;;;;;;;80.07;28.13;;;;;;;;;;4994266;28;101845;-76
2022/01/24 08:28:10;;;;;;;69.65;28.23;;;;;;;;;;4996943;28;100293;-76
2022/01/24 08:30:37;;;;;;;75.43;28.90;;;;;;;;;;5011689;28;100126;-75
2022/01/24 08:33:05;;;;;;;68.85;26.75;;;;;;;;;;5013983;28;100233;-76
2022/01/24 08:35:33;;;;;;;63.35;25.77;;;;;;;;;;4996222;28;100837;-76
2022/01/24 08:38:00;;;;;;;72.18;28.35;;;;;;;;;;5011954;28;100164;-76
2022/01/24 08:40:28;;;;;;;85.45;32.35;;;;;;;;;;4991071;28;100790;-75
2022/01/24 08:43:05;;;;;;;70.88;28.05;;;;;;;;;;4997732;28;101532;-75
2022/01/24 08:48:11;;;;;;;77.05;28.85;;;;;;;;;;4979715;28;100211;-75
2022/01/24 08:50:40;;;;;;;70.55;25.95;;;;;;;;;;4992704;28;100185;-75
2022/01/24 08:53:07;;;;;;;70.63;27.05;;;;;;;;;;4991645;28;100614;-75
2022/01/24 08:55:34;;;;;;;68.93;26.67;;;;;;;;;;4993345;28;100533;-75
2022/01/24 08:58:02;;;;;;;56.13;22.92;;;;;;;;;;4991959;28;100361;-75
2022/01/24 09:00:30;;;;;;;50.92;21.10;;;;;;;;;;5013805;28;100047;-75
2022/01/24 09:02:56;;;;;;;64.07;24.65;;;;;;;;;;4933431;28;101397;-75
2022/01/24 09:05:24;;;;;;;67.80;24.23;;;;;;;;;;5033191;28;100670;-76
2022/01/24 09:07:51;;;;;;;65.50;25.52;;;;;;;;;;5032839;28;100150;-76
2022/01/24 09:10:19;;;;;;;71.80;27.15;;;;;;;;;;5029588;28;101783;-75
2022/01/24 09:12:46;;;;;;;64.75;25.27;;;;;;;;;;5015491;28;100739;-74
2022/01/24 09:15:14;;;;;;;76.35;28.10;;;;;;;;;;5015199;28;100823;-75
2022/01/24 09:17:43;;;;;;;69.72;24.35;;;;;;;;;;5005040;28;100281;-74
2022/01/24 09:20:11;;;;;;;71.82;25.60;;;;;;;;;;4996204;28;100429;-75
2022/01/24 09:22:42;;;;;;;64.85;25.65;;;;;;;;;;5012232;28;101007;-75
2022/01/24 09:25:10;;;;;;;62.17;23.23;;;;;;;;;;4991041;28;100659;-75
2022/01/24 09:27:40;;;;;;;52.75;23.63;;;;;;;;;;5013924;28;100107;-74
2022/01/24 09:30:10;;;;;;;48.42;19.85;;;;;;;;;;5015623;28;100135;-75
2022/01/24 09:32:37;;;;;;;50.20;20.17;;;;;;;;;;5015152;28;100204;-76
2022/01/24 09:35:04;;;;;;;43.13;17.90;;;;;;;;;;5014700;28;100884;-74
2022/01/24 09:37:31;;;;;;;42.88;16.98;;;;;;;;;;5031920;28;100267;-74
2022/01/24 09:39:58;;;;;;;48.67;20.00;;;;;;;;;;5015714;28;100060;-74
2022/01/24 09:42:25;;;;;;;48.30;19.30;;;;;;;;;;5032474;28;100490;-75
2022/01/24 09:44:53;;;;;;;55.20;21.27;;;;;;;;;;5014776;28;100651;-75
2022/01/24 09:47:19;;;;;;;48.20;19.00;;;;;;;;;;4995868;28;100169;-75
2022/01/24 09:49:46;;;;;;;55.78;21.25;;;;;;;;;;5011995;28;100035;-75
2022/01/24 09:52:13;;;;;;;91.65;36.30;;;;;;;;;;5000900;28;101408;-74
2022/01/24 09:54:40;;;;;;;97.15;38.85;;;;;;;;;;4997896;28;100713;-75
2022/01/24 09:57:07;;;;;;;85.07;35.70;;;;;;;;;;5031599;28;101198;-75
2022/01/24 09:59:34;;;;;;;85.22;36.05;;;;;;;;;;5031114;28;100275;-75
2022/01/24 10:02:02;;;;;;;105.90;41.83;;;;;;;;;;5014440;28;101275;-75
2022/01/24 10:04:30;;;;;;;80.10;31.88;;;;;;;;;;5014448;28;100708;-74
2022/01/24 10:06:59;;;;;;;73.43;29.45;;;;;;;;;;5015309;28;100052;-74
2022/01/24 10:09:28;;;;;;;61.20;23.70;;;;;;;;;;5032376;28;100104;-74
2022/01/24 10:12:35;;;;;;;46.20;18.17;;;;;;;;;;4997879;28;101218;-75
2022/01/24 10:17:50;;;;;;;60.20;22.45;;;;;;;;;;5031987;28;100303;-75
2022/01/24 10:20:25;;;;;;;75.03;27.27;;;;;;;;;;5031913;28;100098;-75
2022/01/24 10:23:04;;;;;;;54.00;21.60;;;;;;;;;;5015542;28;100258;-75
2022/01/24 10:25:31;;;;;;;52.35;21.33;;;;;;;;;;5031107;28;100967;-76
2022/01/24 10:28:02;;;;;;;48.95;18.63;;;;;;;;;;5032837;28;100140;-75
2022/01/24 10:30:30;;;;;;;37.90;18.40;;;;;;;;;;5015516;28;100014;-77
2022/01/24 10:32:57;;;;;;;49.75;19.88;;;;;;;;;;5013905;28;100156;-75
2022/01/24 10:35:37;;;;;;;46.03;18.42;;;;;;;;;;5032314;28;100815;-76
2022/01/24 10:38:53;;;;;;;33.78;13.68;;;;;;;;;;5001207;28;100183;-75
2022/01/24 10:41:39;;;;;;;40.47;16.20;;;;;;;;;;5012845;28;100013;-75
2022/01/24 10:44:08;;;;;;;39.40;17.85;;;;;;;;;;4996746;28;101140;-75
2022/01/24 10:47:31;;;;;;;44.47;16.48;;;;;;;;;;5010041;28;100721;-75
2022/01/24 10:50:01;;;;;;;38.55;14.00;;;;;;;;;;4954076;28;100021;-76
2022/01/24 10:52:29;;;;;;;35.63;13.95;;;;;;;;;;4988443;28;100181;-76
2022/01/24 10:55:32;;;;;;;39.50;15.73;;;;;;;;;;5010211;28;100663;-75
2022/01/24 10:58:09;;;;;;;37.88;15.15;;;;;;;;;;4910706;28;100856;-76
2022/01/24 11:00:37;;;;;;;38.88;16.50;;;;;;;;;;4981989;28;100160;-75
2022/01/24 11:03:06;;;;;;;37.22;14.80;;;;;;;;;;4996623;28;100242;-75
2022/01/24 11:05:34;;;;;;;44.22;17.42;;;;;;;;;;4985228;28;100401;-75
2022/01/24 11:08:04;;;;;;;40.25;14.75;;;;;;;;;;5018958;28;100672;-75
2022/01/24 11:10:38;;;;;;;40.95;14.90;;;;;;;;;;5002916;28;100167;-73
2022/01/24 11:13:05;;;;;;;32.50;12.15;;;;;;;;;;5003925;28;100127;-75
2022/01/24 11:15:33;;;;;;;31.95;13.65;;;;;;;;;;4994105;28;100229;-75
2022/01/24 11:18:01;;;;;;;26.08;12.13;;;;;;;;;;4997698;28;100804;-76
2022/01/24 11:20:31;;;;;;;27.77;11.85;;;;;;;;;;5015647;28;100104;-76
2022/01/24 11:23:01;;;;;;;33.13;12.88;;;;;;;;;;4990563;28;100063;-76
2022/01/24 11:25:29;;;;;;;39.22;15.18;;;;;;;;;;4967936;28;102480;-74
2022/01/24 11:27:56;;;;;;;28.98;13.65;;;;;;;;;;5014958;28;100631;-74
2022/01/24 11:30:33;;;;;;;47.08;16.73;;;;;;;;;;5016952;28;100214;-75
2022/01/24 11:33:04;;;;;;;47.80;17.35;;;;;;;;;;4968745;28;100055;-74
2022/01/24 11:35:50;;;;;;;33.83;15.95;;;;;;;;;;4995836;28;100432;-75
2022/01/24 11:38:30;;;;;;;45.03;15.93;;;;;;;;;;5018968;28;100650;-76
2022/01/24 11:41:03;;;;;;;46.80;17.77;;;;;;;;;;5016811;28;101047;-76
2022/01/24 11:43:34;;;;;;;40.72;16.73;;;;;;;;;;5008804;28;100122;-76
2022/01/24 11:46:28;;;;;;;30.70;13.88;;;;;;;;;;4999207;28;100306;-75
2022/01/24 11:49:07;;;;;;;36.30;15.55;;;;;;;;;;5013040;28;100773;-76
2022/01/24 11:51:34;;;;;;;46.13;17.15;;;;;;;;;;5012261;28;100215;-75
2022/01/24 11:54:01;;;;;;;44.13;17.38;;;;;;;;;;5023763;28;100043;-76
2022/01/24 11:56:31;;;;;;;55.60;19.23;;;;;;;;;;5016317;28;100234;-75
2022/01/24 11:59:16;;;;;;;38.78;16.60;;;;;;;;;;4984751;28;102012;-75
2022/01/24 12:01:45;;;;;;;52.40;19.42;;;;;;;;;;5024116;28;100104;-74
2022/01/24 12:04:12;;;;;;;37.75;15.63;;;;;;;;;;5015980;28;100337;-76
2022/01/24 12:07:18;;;;;;;40.40;16.38;;;;;;;;;;5022576;28;102686;-74
2022/01/24 12:09:45;;;;;;;40.95;17.02;;;;;;;;;;5030580;28;100702;-73
2022/01/24 12:12:37;;;;;;;40.25;16.48;;;;;;;;;;5004326;28;101027;-75
2022/01/24 12:15:04;;;;;;;35.17;15.35;;;;;;;;;;5014671;28;100064;-75
2022/01/24 12:17:49;;;;;;;43.35;17.65;;;;;;;;;;5014405;28;100255;-75
2022/01/24 12:20:31;;;;;;;35.60;14.43;;;;;;;;;;4980582;28;100608;-76
2022/01/24 12:23:16;;;;;;;33.47;14.43;;;;;;;;;;5018333;28;102098;-75
2022/01/24 12:26:07;;;;;;;29.25;12.88;;;;;;;;;;5016312;28;100273;-75
2022/01/24 12:28:44;;;;;;;31.65;13.82;;;;;;;;;;5033454;28;100739;-75
2022/01/24 12:31:27;;;;;;;37.75;14.80;;;;;;;;;;5017396;28;100604;-74
2022/01/24 12:33:54;;;;;;;39.70;15.85;;;;;;;;;;5015055;28;100762;-76
2022/01/24 12:36:39;;;;;;;31.50;13.60;;;;;;;;;;5034991;28;100000;-74
2022/01/24 12:39:10;;;;;;;27.90;13.43;;;;;;;;;;5015797;28;100301;-75
2022/01/24 12:41:39;;;;;;;25.25;11.50;;;;;;;;;;5015177;28;100766;-77
2022/01/24 12:46:33;;;;;;;27.38;10.88;;;;;;;;;;5034665;28;102260;-77
2022/01/24 12:49:05;;;;;;;22.73;10.82;;;;;;;;;;5032710;28;100221;-75
2022/01/24 12:51:35;;;;;;;33.08;13.95;;;;;;;;;;5013836;28;100621;-75
2022/01/24 12:54:04;;;;;;;21.40;9.85;;;;;;;;;;4979869;28;100203;-75
2022/01/24 12:56:33;;;;;;;19.95;9.15;;;;;;;;;;5013441;28;100438;-75
2022/01/24 12:59:00;;;;;;;30.10;12.02;;;;;;;;;;4975324;28;100345;-75
2022/01/24 13:01:28;;;;;;;25.52;10.55;;;;;;;;;;4994023;28;101221;-75
2022/01/24 13:04:03;;;;;;;22.35;10.63;;;;;;;;;;4963051;28;100153;-76
2022/01/24 13:06:31;;;;;;;20.65;8.05;;;;;;;;;;5011925;28;102792;-76
2022/01/24 13:09:25;;;;;;;19.02;8.57;;;;;;;;;;4995987;28;100172;-75
2022/01/24 13:11:55;;;;;;;16.50;7.22;;;;;;;;;;4991240;28;101746;-76
2022/01/24 13:25:04;;;;;;;17.38;6.43;;;;;;;;;;4959926;28;100420;-76
2022/01/24 13:27:41;;;;;;;20.73;8.95;;;;;;;;;;4996779;28;100101;-76
2022/01/24 13:30:15;;;;;;;20.35;8.13;;;;;;;;;;4994652;28;103394;-77
2022/01/24 13:32:42;;;;;;;25.27;9.43;;;;;;;;;;4998497;28;100780;-76
2022/01/24 13:35:17;;;;;;;13.68;7.13;;;;;;;;;;4976119;28;100323;-77
2022/01/24 13:37:45;;;;;;;16.20;7.18;;;;;;;;;;4994321;28;100225;-75
2022/01/24 13:40:12;;;;;;;15.35;7.85;;;;;;;;;;5011857;28;100148;-76
2022/01/24 13:42:42;;;;;;;22.20;8.75;;;;;;;;;;5011541;28;101924;-76
2022/01/24 13:45:08;;;;;;;19.67;8.82;;;;;;;;;;5011340;28;99957;-76
2022/01/24 13:47:35;;;;;;;15.93;7.75;;;;;;;;;;5001554;28;99955;-76
2022/01/24 13:50:04;;;;;;;16.13;7.40;;;;;;;;;;4982937;28;100196;-76
2022/01/24 13:52:31;;;;;;;13.52;6.88;;;;;;;;;;5006362;28;101198;-76
2022/01/24 13:55:16;;;;;;;21.98;7.68;;;;;;;;;;4994971;28;100074;-75
2022/01/24 13:57:49;;;;;;;19.45;8.68;;;;;;;;;;5012897;28;99949;-76
2022/01/24 14:00:24;;;;;;;15.13;6.82;;;;;;;;;;5030749;28;100148;-75
2022/01/24 14:03:08;;;;;;;20.77;7.65;;;;;;;;;;5013765;28;104189;-76
2022/01/24 14:05:49;;;;;;;18.88;8.43;;;;;;;;;;5017273;28;100076;-75
2022/01/24 14:08:16;;;;;;;22.83;9.60;;;;;;;;;;5020977;28;100422;-75
2022/01/24 14:10:43;;;;;;;21.00;8.20;;;;;;;;;;5033076;28;100737;-75
2022/01/24 14:13:11;;;;;;;18.73;8.10;;;;;;;;;;5032195;28;100704;-75
2022/01/24 14:18:23;;;;;;;19.25;9.63;;;;;;;;;;5002042;28;100066;-76
2022/01/24 14:20:54;;;;;;;22.05;9.30;;;;;;;;;;5003909;28;100936;-75
2022/01/24 14:23:25;;;;;;;17.50;8.30;;;;;;;;;;4994984;28;100592;-76
2022/01/24 14:25:53;;;;;;;21.35;9.70;;;;;;;;;;5000227;28;100513;-76
2022/01/24 14:28:23;;;;;;;19.15;8.07;;;;;;;;;;5015004;28;99987;-76
2022/01/24 14:30:50;;;;;;;17.45;8.18;;;;;;;;;;5014970;28;100110;-76
2022/01/24 14:33:18;;;;;;;20.00;8.27;;;;;;;;;;5001177;28;100655;-76
2022/01/24 14:36:01;;;;;;;21.92;10.50;;;;;;;;;;5021765;28;100112;-76
2022/01/24 14:38:32;;;;;;;19.80;8.95;;;;;;;;;;4997983;28;100228;-76
2022/01/24 14:41:09;;;;;;;20.08;8.63;;;;;;;;;;4997709;28;100200;-76
2022/01/24 14:46:26;;;;;;;20.67;8.70;;;;;;;;;;5036294;28;100232;-76
2022/01/24 14:49:02;;;;;;;20.35;8.77;;;;;;;;;;5001907;28;100023;-76
2022/01/24 14:51:31;;;;;;;20.95;8.43;;;;;;;;;;5035360;28;100226;-76
2022/01/24 14:54:00;;;;;;;18.98;7.82;;;;;;;;;;5000761;28;100581;-76
2022/01/24 14:56:27;;;;;;;18.85;9.10;;;;;;;;;;5018362;28;99992;-76
2022/01/24 14:58:54;;;;;;;23.05;9.85;;;;;;;;;;5014341;28;100238;-76
2022/01/24 15:01:21;;;;;;;25.80;10.40;;;;;;;;;;5014072;28;100310;-76
2022/01/24 15:03:56;;;;;;;23.83;9.02;;;;;;;;;;5014198;28;100584;-76
2022/01/24 15:06:23;;;;;;;20.35;9.15;;;;;;;;;;5012709;28;100278;-76
2022/01/24 15:08:51;;;;;;;19.50;8.35;;;;;;;;;;4992665;28;100186;-76
2022/01/24 15:11:20;;;;;;;24.73;10.98;;;;;;;;;;4978079;28;100448;-76
2022/01/24 15:13:54;;;;;;;16.73;8.00;;;;;;;;;;4998880;28;101163;-76
2022/01/24 15:16:33;;;;;;;27.90;10.55;;;;;;;;;;4998476;28;100182;-76
2022/01/24 15:27:17;;;;;;;22.70;8.63;;;;;;;;;;5014446;28;100694;-75
2022/01/24 15:29:44;;;;;;;29.23;10.75;;;;;;;;;;5014768;28;100104;-75
2022/01/24 15:32:31;;;;;;;21.50;9.65;;;;;;;;;;5013767;28;100311;-75
2022/01/24 15:34:58;;;;;;;25.20;10.63;;;;;;;;;;5014667;28;100585;-76
2022/01/24 15:37:24;;;;;;;23.25;10.63;;;;;;;;;;4994914;28;100210;-76
2022/01/24 15:39:54;;;;;;;28.15;11.27;;;;;;;;;;4997743;28;100008;-76
2022/01/24 15:42:37;;;;;;;27.75;10.82;;;;;;;;;;5012741;28;100674;-77
2022/01/24 15:47:47;;;;;;;26.55;11.63;;;;;;;;;;5014349;28;100168;-75
2022/01/24 15:50:16;;;;;;;35.88;13.50;;;;;;;;;;5004266;28;100406;-75
2022/01/24 15:52:43;;;;;;;25.63;10.90;;;;;;;;;;4993089;28;100274;-75
2022/01/24 15:55:12;;;;;;;25.90;11.65;;;;;;;;;;4992404;28;101124;-75
2022/01/24 15:57:39;;;;;;;27.52;12.63;;;;;;;;;;5008241;28;100510;-76
2022/01/24 16:00:12;;;;;;;33.30;13.85;;;;;;;;;;5013777;28;100261;-75
2022/01/24 16:02:41;;;;;;;35.75;15.35;;;;;;;;;;5013309;28;100307;-76
2022/01/24 16:05:10;;;;;;;32.22;14.32;;;;;;;;;;5012533;28;100702;-75
2022/01/24 16:07:39;;;;;;;39.60;15.95;;;;;;;;;;5013983;28;99961;-75
2022/01/24 16:10:27;;;;;;;33.85;14.20;;;;;;;;;;4998433;28;100141;-74
2022/01/24 16:12:54;;;;;;;32.50;12.63;;;;;;;;;;4994265;28;100331;-75
2022/01/24 16:15:26;;;;;;;39.17;14.68;;;;;;;;;;4993999;28;101867;-75
2022/01/24 16:17:53;;;;;;;46.03;18.58;;;;;;;;;;4994147;28;100047;-76
2022/01/24 16:25:44;;;;;;;51.50;19.90;;;;;;;;;;5012722;28;100668;-76
2022/01/24 16:28:16;;;;;;;48.75;19.63;;;;;;;;;;5012715;28;100165;-76
2022/01/24 16:30:53;;;;;;;58.47;21.77;;;;;;;;;;5014196;28;100429;-75
2022/01/24 16:33:21;;;;;;;67.88;25.63;;;;;;;;;;5012108;28;100308;-75
2022/01/24 16:35:49;;;;;;;57.92;22.55;;;;;;;;;;5012298;28;100639;-76
2022/01/24 16:38:16;;;;;;;51.97;23.27;;;;;;;;;;5011596;28;100310;-76
2022/01/24 16:43:41;;;;;;;54.03;22.25;;;;;;;;;;5001769;28;100418;-76
2022/01/24 16:48:41;;;;;;;49.40;19.67;;;;;;;;;;4997331;28;100011;-76
2022/01/24 16:51:13;;;;;;;52.38;19.08;;;;;;;;;;4960604;28;100170;-76